Time;durP1;ratioP1;P1;durP2;ratioP2;P2;SDS_P1;SDS_P2;PMS_P1;PMS_P2;Temp;Humidity;BMP_temperature;BMP_pressure;BME280_temperature;BME280_humidity;BME280_pressure;Samples;Min_cycle;Max_cycle;Signal;HPM_P1;HPM_P2
2022/12/27 00:01:44;;;;;;;4.80;2.10;;;5.80;99.90;;;;;;5038582;28;20526;-36
2022/12/27 00:04:09;;;;;;;8.23;2.43;;;6.00;99.90;;;;;;5036897;28;20193;-37
2022/12/27 00:06:35;;;;;;;5.87;2.53;;;5.80;99.90;;;;;;5046755;28;20709;-39
2022/12/27 00:09:01;;;;;;;4.17;2.10;;;5.80;99.90;;;;;;5048439;28;20206;-37
2022/12/27 00:11:28;;;;;;;6.93;2.50;;;5.80;99.90;;;;;;5033852;28;20691;-41
2022/12/27 00:13:58;;;;;;;6.73;2.50;;;6.00;99.90;;;;;;5037207;28;20414;-39
2022/12/27 00:16:24;;;;;;;5.90;1.97;;;5.90;99.90;;;;;;5036537;28;20416;-39
2022/12/27 00:18:51;;;;;;;9.37;3.57;;;5.80;99.90;;;;;;5048711;28;20431;-41
2022/12/27 00:21:17;;;;;;;9.47;3.03;;;5.90;99.90;;;;;;5050023;28;20208;-41
2022/12/27 00:23:46;;;;;;;4.40;2.10;;;5.90;99.90;;;;;;5049281;28;20464;-39
2022/12/27 00:26:21;;;;;;;4.27;2.47;;;5.70;99.90;;;;;;5048497;28;20985;-39
2022/12/27 00:28:47;;;;;;;5.60;2.50;;;6.00;99.90;;;;;;5048605;28;20683;-39
2022/12/27 00:31:13;;;;;;;5.93;3.67;;;5.70;99.90;;;;;;5049146;28;20494;-40
2022/12/27 00:33:41;;;;;;;6.70;2.20;;;5.80;99.90;;;;;;5049218;28;20447;-36
2022/12/27 00:36:10;;;;;;;2.70;2.50;;;5.80;99.90;;;;;;5049430;28;20424;-35
2022/12/27 00:38:35;;;;;;;3.87;1.93;;;5.90;99.90;;;;;;5049818;28;20511;-40
2022/12/27 00:41:02;;;;;;;9.77;2.60;;;5.70;99.90;;;;;;5046632;28;20535;-37
2022/12/27 00:43:27;;;;;;;4.93;2.33;;;5.80;99.90;;;;;;5046479;28;20220;-37
2022/12/27 00:45:53;;;;;;;5.37;2.47;;;5.70;99.90;;;;;;5031575;28;20506;-33
2022/12/27 00:48:19;;;;;;;5.87;2.63;;;5.80;99.90;;;;;;5027935;28;20220;-37
2022/12/27 00:50:45;;;;;;;3.90;2.20;;;6.00;99.90;;;;;;5029504;28;20436;-35
2022/12/27 00:53:11;;;;;;;7.03;2.80;;;5.80;99.90;;;;;;5029122;28;20435;-40
2022/12/27 00:55:40;;;;;;;4.63;2.47;;;5.80;99.90;;;;;;5038223;28;21323;-39
2022/12/27 00:58:06;;;;;;;3.40;2.20;;;5.70;99.90;;;;;;5039038;28;20408;-38
2022/12/27 01:00:32;;;;;;;5.77;2.70;;;5.60;99.90;;;;;;5027957;28;20452;-37
2022/12/27 01:02:57;;;;;;;4.00;2.33;;;5.90;99.90;;;;;;5029073;28;20665;-38
2022/12/27 01:05:23;;;;;;;5.73;2.40;;;5.70;99.90;;;;;;5028521;28;20190;-37
2022/12/27 01:07:48;;;;;;;7.50;2.70;;;5.80;99.90;;;;;;5029538;28;20756;-39
2022/12/27 01:10:14;;;;;;;7.00;2.40;;;5.70;99.90;;;;;;5028915;28;20218;-38
2022/12/27 01:12:40;;;;;;;5.83;2.57;;;5.60;99.90;;;;;;5039445;28;20236;-39
2022/12/27 01:15:07;;;;;;;7.67;2.57;;;5.60;99.90;;;;;;5039184;28;20191;-39
2022/12/27 01:17:36;;;;;;;4.90;3.00;;;5.70;99.90;;;;;;5044440;28;20671;-40
2022/12/27 01:20:02;;;;;;;4.23;2.50;;;5.70;99.90;;;;;;5048863;28;20420;-41
2022/12/27 01:22:28;;;;;;;3.77;2.13;;;6.00;99.90;;;;;;5048710;28;20456;-40
2022/12/27 01:24:54;;;;;;;5.87;2.77;;;5.90;99.90;;;;;;5047039;28;20931;-40
2022/12/27 01:27:19;;;;;;;12.30;3.23;;;5.80;99.90;;;;;;5048472;28;20581;-40
2022/12/27 01:29:45;;;;;;;3.47;1.90;;;5.70;99.90;;;;;;5048999;28;20192;-36
2022/12/27 01:32:11;;;;;;;4.00;2.70;;;5.70;99.90;;;;;;5048545;28;20722;-39
2022/12/27 01:34:36;;;;;;;5.93;2.93;;;5.70;99.90;;;;;;5047913;28;20679;-35
2022/12/27 01:37:02;;;;;;;4.70;2.50;;;5.70;99.90;;;;;;5047230;28;20189;-35
2022/12/27 01:39:28;;;;;;;5.93;2.30;;;5.90;99.90;;;;;;5046832;28;20182;-38
2022/12/27 01:42:54;;;;;;;3.10;2.20;;;5.70;99.90;;;;;;5041338;28;20688;-40
2022/12/27 01:44:56;;;;;;;4.00;2.67;;;5.70;99.90;;;;;;5026834;28;20202;-37
2022/12/27 01:48:01;;;;;;;6.27;2.67;;;5.80;99.90;;;;;;5028454;28;20428;-38
2022/12/27 01:50:35;;;;;;;6.73;2.70;;;5.70;99.90;;;;;;5028474;28;20452;-38
2022/12/27 01:53:20;;;;;;;4.40;2.53;;;6.10;99.90;;;;;;5028727;28;20428;-39
2022/12/27 01:55:49;;;;;;;5.57;2.30;;;6.00;99.90;;;;;;5036705;28;20423;-39
2022/12/27 01:58:58;;;;;;;4.27;2.40;;;5.80;99.90;;;;;;5048287;28;20491;-38
2022/12/27 02:01:29;;;;;;;4.37;2.77;;;5.80;99.90;;;;;;5047858;28;20465;-38
2022/12/27 02:03:57;;;;;;;3.73;2.27;;;6.00;99.90;;;;;;5045918;28;20874;-39
2022/12/27 02:06:24;;;;;;;5.93;3.10;;;5.90;99.90;;;;;;5048339;28;20421;-36
2022/12/27 02:09:17;;;;;;;6.30;2.80;;;5.80;99.90;;;;;;5042853;28;20427;-38
2022/12/27 02:11:52;;;;;;;4.17;2.40;;;5.70;99.90;;;;;;5043693;28;20416;-40
2022/12/27 02:14:34;;;;;;;5.73;2.33;;;5.80;99.90;;;;;;5032699;28;20417;-38
2022/12/27 02:17:04;;;;;;;4.20;2.57;;;6.00;99.90;;;;;;5039366;28;20423;-37
2022/12/27 02:19:53;;;;;;;7.17;2.90;;;6.00;99.90;;;;;;5047733;28;20416;-35
2022/12/27 02:25:22;;;;;;;3.50;2.40;;;6.00;99.90;;;;;;5037565;28;20966;-39
2022/12/27 02:28:01;;;;;;;4.70;2.67;;;5.90;99.90;;;;;;5039421;28;20498;-39
2022/12/27 02:30:30;;;;;;;7.57;3.40;;;5.70;99.90;;;;;;5027895;28;20421;-40
2022/12/27 02:33:05;;;;;;;3.77;2.50;;;5.70;99.90;;;;;;5032695;28;20800;-38
2022/12/27 02:35:41;;;;;;;6.93;2.43;;;5.80;99.90;;;;;;5044342;28;20409;-38
2022/12/27 02:38:36;;;;;;;6.13;2.70;;;6.00;99.90;;;;;;5028325;28;20428;-40
2022/12/27 02:55:37;;;;;;;8.70;2.90;;;5.90;99.90;;;;;;5031299;28;20570;-38
2022/12/27 02:58:30;;;;;;;6.10;2.47;;;5.80;99.90;;;;;;5031216;28;20447;-40
2022/12/27 03:04:16;;;;;;;8.90;2.87;;;5.70;99.90;;;;;;5014509;28;20516;-41
2022/12/27 03:07:39;;;;;;;3.40;2.10;;;5.70;99.90;;;;;;5031564;28;20429;-40
2022/12/27 03:16:24;;;;;;;6.30;2.10;;;5.80;99.90;;;;;;5034368;28;20488;-38
2022/12/27 03:19:11;;;;;;;7.17;2.50;;;5.90;99.90;;;;;;5050047;28;20431;-36
2022/12/27 03:27:29;;;;;;;5.07;2.23;;;5.70;99.90;;;;;;5044371;28;20425;-40
2022/12/27 03:33:14;;;;;;;6.20;2.10;;;5.90;99.90;;;;;;5030744;28;20437;-35
2022/12/27 03:38:51;;;;;;;3.73;2.30;;;5.80;99.90;;;;;;5030729;28;20440;-38
2022/12/27 03:44:25;;;;;;;5.27;2.60;;;5.80;99.90;;;;;;5030147;28;20457;-39
2022/12/27 03:46:59;;;;;;;5.30;2.60;;;5.80;99.90;;;;;;5031318;28;20528;-39
2022/12/27 03:49:34;;;;;;;3.00;2.00;;;5.80;99.90;;;;;;5030564;28;20416;-35
2022/12/27 03:52:06;;;;;;;8.07;2.60;;;5.90;99.90;;;;;;5030625;28;20424;-40
2022/12/27 03:54:37;;;;;;;5.00;2.00;;;6.00;99.90;;;;;;5037881;28;20428;-36
2022/12/27 03:57:10;;;;;;;7.90;2.40;;;5.90;99.90;;;;;;5036951;28;20421;-39
2022/12/27 03:59:36;;;;;;;7.90;2.40;;;6.00;99.90;;;;;;5030566;28;20796;-39
2022/12/27 04:02:04;;;;;;;6.53;2.20;;;5.80;99.90;;;;;;5030484;28;20622;-38
2022/12/27 04:04:30;;;;;;;4.13;1.80;;;5.90;99.90;;;;;;5028701;28;20820;-36
2022/12/27 04:06:56;;;;;;;5.67;2.30;;;6.00;99.90;;;;;;5030231;28;20438;-36
2022/12/27 04:36:48;;;;;;;5.67;2.40;;;6.00;99.90;;;;;;5030040;28;20425;-39
2022/12/27 04:39:14;;;;;;;5.77;2.90;;;6.20;99.90;;;;;;5029934;28;21340;-40
2022/12/27 04:55:32;;;;;;;5.10;2.40;;;5.90;99.90;;;;;;5029709;28;20421;-36
2022/12/27 04:57:58;;;;;;;4.40;2.27;;;6.00;99.90;;;;;;5041359;28;20450;-40
2022/12/27 05:03:17;;;;;;;3.93;1.83;;;5.90;99.90;;;;;;5043668;28;20467;-38
2022/12/27 05:05:44;;;;;;;4.70;2.23;;;6.00;99.90;;;;;;5049452;28;20989;-38
2022/12/27 05:13:59;;;;;;;5.23;2.23;;;5.90;99.90;;;;;;5042991;28;20777;-39
2022/12/27 05:16:40;;;;;;;4.60;2.10;;;6.10;99.90;;;;;;5049340;28;20471;-37
2022/12/27 05:19:07;;;;;;;4.40;2.60;;;6.10;99.90;;;;;;5049266;28;20508;-37
2022/12/27 05:25:33;;;;;;;5.33;2.03;;;6.00;99.90;;;;;;5048975;28;20435;-38
2022/12/27 05:27:16;;;;;;;4.27;2.40;;;6.00;99.90;;;;;;5041379;28;20447;-36
2022/12/27 05:29:42;;;;;;;7.17;2.80;;;6.10;99.90;;;;;;5045958;28;20416;-36
2022/12/27 05:32:07;;;;;;;7.23;2.30;;;6.10;99.90;;;;;;5046968;28;20428;-40
2022/12/27 05:34:33;;;;;;;6.03;2.30;;;6.10;99.90;;;;;;5048411;28;20815;-37
2022/12/27 05:36:59;;;;;;;4.97;2.50;;;6.30;99.90;;;;;;5047225;28;20189;-35
2022/12/27 05:39:24;;;;;;;3.93;2.60;;;6.10;99.90;;;;;;5048930;28;20269;-36
2022/12/27 05:41:50;;;;;;;7.10;2.33;;;6.00;99.90;;;;;;5048350;28;20182;-37
2022/12/27 05:44:15;;;;;;;9.73;2.90;;;6.30;99.90;;;;;;5048276;28;20182;-34
2022/12/27 05:46:41;;;;;;;6.70;2.83;;;6.30;99.90;;;;;;5048545;28;20289;-41
2022/12/27 05:49:07;;;;;;;7.77;2.93;;;6.20;99.90;;;;;;5048352;28;20303;-37
2022/12/27 05:51:32;;;;;;;7.60;3.10;;;6.20;99.90;;;;;;5048535;28;20181;-39
2022/12/27 05:53:58;;;;;;;6.40;3.30;;;6.20;99.90;;;;;;5040956;28;20196;-37
2022/12/27 05:56:24;;;;;;;3.60;2.70;;;6.50;99.90;;;;;;5048410;28;20212;-34
2022/12/27 05:58:52;;;;;;;3.60;2.73;;;6.30;99.90;;;;;;5048071;28;20178;-38
2022/12/27 06:01:18;;;;;;;5.03;2.93;;;6.20;99.90;;;;;;5048439;28;20664;-37
2022/12/27 06:03:44;;;;;;;9.20;3.60;;;6.30;99.90;;;;;;5047648;28;20597;-35
2022/12/27 06:06:11;;;;;;;7.43;3.27;;;6.20;99.90;;;;;;5048344;28;20459;-36
2022/12/27 06:08:37;;;;;;;4.70;3.07;;;6.50;99.90;;;;;;5048524;28;20508;-35
2022/12/27 06:11:08;;;;;;;4.10;3.17;;;6.50;99.90;;;;;;5048180;28;20447;-37
2022/12/27 06:13:36;;;;;;;7.90;3.53;;;6.20;99.90;;;;;;5046205;28;20441;-39
2022/12/27 06:16:03;;;;;;;7.90;4.27;;;6.40;99.90;;;;;;5047603;28;20787;-38
2022/12/27 06:18:30;;;;;;;9.10;3.83;;;6.40;99.90;;;;;;5048452;28;20420;-37
2022/12/27 06:21:05;;;;;;;9.97;3.97;;;6.30;99.90;;;;;;5047689;28;20416;-40
2022/12/27 06:23:32;;;;;;;7.53;3.87;;;6.50;99.90;;;;;;5047627;28;20463;-37
2022/12/27 06:25:57;;;;;;;5.40;3.67;;;6.50;99.90;;;;;;5045546;28;20439;-40
2022/12/27 06:28:23;;;;;;;6.43;3.03;;;6.30;99.90;;;;;;5051815;28;20492;-37
2022/12/27 06:30:49;;;;;;;8.73;3.37;;;6.50;99.90;;;;;;5054880;28;20243;-38
2022/12/27 06:33:15;;;;;;;6.63;3.40;;;6.40;99.90;;;;;;5053924;28;20185;-38
2022/12/27 06:35:40;;;;;;;7.33;3.80;;;6.40;99.90;;;;;;5054795;28;20822;-40
2022/12/27 06:38:06;;;;;;;6.90;4.03;;;6.40;99.90;;;;;;5054595;28;20268;-39
2022/12/27 06:40:32;;;;;;;5.43;3.80;;;6.30;99.90;;;;;;5054380;28;20189;-35
2022/12/27 06:42:57;;;;;;;7.00;3.90;;;6.40;99.90;;;;;;5052853;28;20217;-37
2022/12/27 06:45:23;;;;;;;9.90;5.00;;;6.40;99.90;;;;;;5052743;28;20228;-36
2022/12/27 06:47:49;;;;;;;8.00;4.30;;;6.30;99.90;;;;;;5054628;28;20181;-41
2022/12/27 06:50:14;;;;;;;6.40;4.50;;;6.40;99.90;;;;;;5054333;28;20202;-36
2022/12/27 06:52:40;;;;;;;9.03;4.40;;;6.20;99.90;;;;;;5053298;28;20185;-35
2022/12/27 06:55:06;;;;;;;6.93;4.50;;;6.20;99.90;;;;;;5053866;28;20560;-41
2022/12/27 06:57:32;;;;;;;6.07;4.37;;;6.30;99.90;;;;;;5045835;28;20190;-36
2022/12/27 06:59:57;;;;;;;6.90;4.90;;;6.20;99.90;;;;;;5054679;28;20432;-37
2022/12/27 07:02:23;;;;;;;10.93;4.70;;;6.30;99.90;;;;;;5054000;28;20224;-39
2022/12/27 07:04:48;;;;;;;8.53;4.70;;;6.40;99.90;;;;;;5054038;28;20280;-38
2022/12/27 07:07:14;;;;;;;6.20;4.10;;;6.50;99.90;;;;;;5054055;28;20185;-39
2022/12/27 07:09:40;;;;;;;9.40;4.87;;;6.40;99.90;;;;;;5054633;28;20243;-35
2022/12/27 07:12:05;;;;;;;10.13;4.80;;;6.40;99.90;;;;;;5054214;28;20596;-37
2022/12/27 07:14:31;;;;;;;6.47;3.93;;;6.30;99.90;;;;;;5047748;28;20186;-41
2022/12/27 07:16:57;;;;;;;7.50;4.60;;;6.20;99.90;;;;;;5052040;28;20251;-33
2022/12/27 07:19:22;;;;;;;7.60;3.77;;;6.10;99.90;;;;;;5053819;28;20197;-41
2022/12/27 07:21:48;;;;;;;7.30;3.77;;;6.10;99.90;;;;;;5050141;28;20268;-34
2022/12/27 07:24:14;;;;;;;6.50;4.17;;;6.40;99.90;;;;;;5049926;28;20190;-39
2022/12/27 07:26:40;;;;;;;5.83;4.00;;;6.50;99.90;;;;;;5032724;28;20421;-38
2022/12/27 07:29:05;;;;;;;8.27;3.93;;;6.50;99.90;;;;;;5034172;28;20188;-38
2022/12/27 07:31:32;;;;;;;6.77;3.77;;;6.20;99.90;;;;;;5032917;28;20810;-36
2022/12/27 07:33:59;;;;;;;8.13;3.70;;;6.30;99.90;;;;;;5045083;28;20198;-37
2022/12/27 07:36:28;;;;;;;8.87;4.03;;;6.20;99.90;;;;;;5046940;28;20434;-37
2022/12/27 07:38:54;;;;;;;6.70;2.80;;;6.20;99.90;;;;;;5037021;28;20939;-37
2022/12/27 07:41:20;;;;;;;7.60;2.67;;;6.30;99.90;;;;;;5035278;28;20428;-37
2022/12/27 07:43:46;;;;;;;4.13;2.90;;;6.20;99.90;;;;;;5040784;28;20698;-37
2022/12/27 07:46:17;;;;;;;9.90;3.60;;;6.20;99.90;;;;;;5041125;28;20182;-38
2022/12/27 07:48:43;;;;;;;6.83;3.30;;;6.10;99.90;;;;;;5050934;28;20178;-35
2022/12/27 07:51:10;;;;;;;7.07;2.83;;;6.10;99.90;;;;;;5051049;28;20790;-37
2022/12/27 07:53:36;;;;;;;5.47;2.60;;;6.20;99.90;;;;;;5049871;28;20424;-38
2022/12/27 07:56:12;;;;;;;11.07;3.83;;;6.30;99.90;;;;;;5050730;28;20436;-40
2022/12/27 07:58:43;;;;;;;8.53;2.73;;;6.20;99.90;;;;;;5050573;28;20216;-40
2022/12/27 08:01:11;;;;;;;7.93;3.00;;;6.20;99.90;;;;;;5050698;28;20910;-38
2022/12/27 08:03:37;;;;;;;6.17;2.80;;;6.00;99.90;;;;;;5049612;28;20966;-39
2022/12/27 08:06:04;;;;;;;6.60;2.20;;;6.20;99.90;;;;;;5049313;28;20440;-39
2022/12/27 08:08:39;;;;;;;5.90;2.67;;;6.20;99.90;;;;;;5050242;28;21066;-37
2022/12/27 08:11:05;;;;;;;4.50;2.10;;;6.00;99.90;;;;;;5050427;28;20445;-34
2022/12/27 08:13:31;;;;;;;4.40;2.30;;;6.10;99.90;;;;;;5049862;28;20601;-37
2022/12/27 08:15:57;;;;;;;3.57;2.77;;;6.10;99.90;;;;;;5050060;28;20579;-38
2022/12/27 08:18:22;;;;;;;3.53;2.37;;;6.10;99.90;;;;;;5045760;28;20429;-35
2022/12/27 08:20:48;;;;;;;5.80;2.43;;;6.10;99.90;;;;;;5048568;28;20234;-39
2022/12/27 08:23:14;;;;;;;8.60;2.30;;;6.30;99.90;;;;;;5048246;28;20221;-39
2022/12/27 08:25:40;;;;;;;10.67;2.53;;;6.30;99.90;;;;;;5041756;28;20632;-39
2022/12/27 08:28:09;;;;;;;4.93;2.93;;;6.30;99.90;;;;;;5047266;28;20189;-35
2022/12/27 08:30:35;;;;;;;7.13;3.07;;;6.10;99.90;;;;;;5049470;28;20252;-37
2022/12/27 08:33:02;;;;;;;5.10;2.50;;;6.10;99.90;;;;;;5040548;28;20469;-37
2022/12/27 08:35:27;;;;;;;6.20;2.73;;;6.10;99.90;;;;;;5033844;28;20171;-39
2022/12/27 08:37:53;;;;;;;4.83;2.70;;;6.20;99.90;;;;;;5029142;28;20437;-37
2022/12/27 08:40:19;;;;;;;3.90;2.50;;;6.20;99.90;;;;;;5046375;28;20398;-39
2022/12/27 08:42:45;;;;;;;5.77;3.10;;;6.00;99.90;;;;;;5041571;28;20210;-39
2022/12/27 08:45:11;;;;;;;2.93;1.90;;;6.10;99.90;;;;;;5045268;28;20797;-38
2022/12/27 08:47:37;;;;;;;3.80;2.13;;;6.20;99.90;;;;;;5046967;28;20660;-35
2022/12/27 08:50:03;;;;;;;5.43;2.50;;;6.20;99.90;;;;;;5046898;28;20170;-41
2022/12/27 08:52:29;;;;;;;5.93;2.40;;;6.40;99.90;;;;;;5048600;28;20934;-37
2022/12/27 08:54:55;;;;;;;6.13;2.47;;;6.40;99.90;;;;;;5048587;28;20420;-40
2022/12/27 08:57:20;;;;;;;4.37;2.40;;;6.30;99.90;;;;;;5049499;28;20185;-35
2022/12/27 08:59:46;;;;;;;6.30;3.10;;;6.30;99.90;;;;;;5048042;28;20908;-39
2022/12/27 09:02:13;;;;;;;6.70;2.70;;;6.20;99.90;;;;;;5049402;28;20297;-37
2022/12/27 09:04:38;;;;;;;5.87;2.70;;;6.30;99.90;;;;;;5048855;28;20189;-35
2022/12/27 09:07:04;;;;;;;8.30;3.20;;;6.40;99.90;;;;;;5047705;28;20424;-36
2022/12/27 09:09:30;;;;;;;5.97;2.90;;;6.30;99.90;;;;;;5049662;28;20182;-40
2022/12/27 09:11:56;;;;;;;13.07;3.03;;;6.40;99.90;;;;;;5049093;28;20239;-39
2022/12/27 09:14:21;;;;;;;4.67;2.67;;;6.40;99.90;;;;;;5048669;28;20782;-35
2022/12/27 09:16:47;;;;;;;5.40;2.40;;;6.60;99.90;;;;;;5049389;28;20182;-41
2022/12/27 09:19:13;;;;;;;5.37;2.83;;;6.50;99.90;;;;;;5048892;28;20478;-38
2022/12/27 09:21:40;;;;;;;4.00;2.57;;;6.70;99.90;;;;;;5049508;28;20189;-39
2022/12/27 09:24:09;;;;;;;5.40;3.10;;;6.60;99.90;;;;;;5048385;28;20587;-36
2022/12/27 09:26:35;;;;;;;4.20;2.30;;;6.70;99.90;;;;;;5047558;28;20421;-37
2022/12/27 09:29:01;;;;;;;8.40;3.30;;;6.80;99.90;;;;;;5048728;28;20817;-38
2022/12/27 09:31:27;;;;;;;3.70;2.23;;;6.90;99.90;;;;;;5049678;28;20178;-37
2022/12/27 09:33:53;;;;;;;5.70;2.50;;;7.10;99.90;;;;;;5047736;28;20189;-38
2022/12/27 09:36:22;;;;;;;4.60;2.30;;;7.00;99.90;;;;;;5049148;28;20423;-40
2022/12/27 09:38:51;;;;;;;6.30;2.80;;;7.00;99.90;;;;;;5048825;28;20435;-38
2022/12/27 09:41:36;;;;;;;10.97;2.50;;;7.20;99.90;;;;;;5048594;28;20412;-35
2022/12/27 09:44:36;;;;;;;3.93;2.33;;;7.30;99.90;;;;;;5048638;28;20456;-38
2022/12/27 09:47:12;;;;;;;4.90;2.60;;;7.30;99.90;;;;;;5040975;28;20428;-37
2022/12/27 09:49:48;;;;;;;5.00;2.10;;;7.10;99.90;;;;;;5048803;28;20448;-35
2022/12/27 09:52:27;;;;;;;8.03;2.57;;;7.00;99.90;;;;;;5048299;28;20511;-41
2022/12/27 09:55:20;;;;;;;4.57;2.73;;;7.20;99.90;;;;;;5048054;28;20493;-38
2022/12/27 09:57:49;;;;;;;7.87;2.40;;;7.20;99.90;;;;;;5045847;28;20771;-38
2022/12/27 10:00:19;;;;;;;7.47;2.50;;;6.80;99.90;;;;;;5048694;28;20785;-40
2022/12/27 10:02:49;;;;;;;3.30;2.10;;;6.90;99.90;;;;;;5047373;28;20460;-38
2022/12/27 10:05:21;;;;;;;7.13;2.73;;;7.00;99.90;;;;;;5047807;28;20490;-36
2022/12/27 10:08:00;;;;;;;3.97;2.50;;;7.00;99.90;;;;;;5048230;28;20829;-34
2022/12/27 10:10:45;;;;;;;6.17;2.13;;;6.90;99.90;;;;;;5048472;28;20412;-39
2022/12/27 10:13:22;;;;;;;6.03;2.70;;;7.10;99.90;;;;;;5047200;28;20432;-35
2022/12/27 10:15:56;;;;;;;6.67;2.73;;;7.20;99.90;;;;;;5048523;28;20922;-39
2022/12/27 10:18:46;;;;;;;5.23;2.10;;;7.20;99.90;;;;;;5048651;28;20756;-35
2022/12/27 10:21:22;;;;;;;4.23;2.53;;;7.40;99.90;;;;;;5048105;28;20945;-37
2022/12/27 10:23:58;;;;;;;3.83;2.67;;;7.70;99.90;;;;;;5047423;28;20464;-40
2022/12/27 10:26:24;;;;;;;3.90;2.50;;;7.90;99.90;;;;;;5046793;28;20787;-40
2022/12/27 10:28:59;;;;;;;7.73;2.87;;;8.40;99.90;;;;;;5048163;28;20435;-40
2022/12/27 10:31:26;;;;;;;6.33;2.10;;;8.30;99.90;;;;;;5047943;28;20897;-39
2022/12/27 10:33:52;;;;;;;7.67;2.57;;;8.30;99.90;;;;;;5047558;28;20428;-35
2022/12/27 10:36:26;;;;;;;4.93;2.07;;;8.30;99.90;;;;;;5047378;28;20408;-37
2022/12/27 10:38:53;;;;;;;5.47;2.60;;;8.30;99.90;;;;;;5048347;28;20682;-37
2022/12/27 10:41:38;;;;;;;5.90;2.40;;;8.50;99.90;;;;;;5047917;28;20453;-40
2022/12/27 10:44:12;;;;;;;6.47;2.40;;;8.40;99.90;;;;;;5047463;28;20479;-40
2022/12/27 10:46:41;;;;;;;4.90;2.40;;;8.30;99.90;;;;;;5047856;28;20498;-41
2022/12/27 10:49:27;;;;;;;9.80;2.57;;;8.60;99.90;;;;;;5047668;28;20470;-40
2022/12/27 10:52:06;;;;;;;5.90;2.23;;;8.60;99.90;;;;;;5048330;28;20507;-38
2022/12/27 10:54:32;;;;;;;8.90;2.80;;;8.40;99.90;;;;;;5047111;28;20416;-40
2022/12/27 10:57:17;;;;;;;11.23;2.57;;;8.50;99.90;;;;;;5047804;28;20423;-35
2022/12/27 10:59:43;;;;;;;6.13;2.40;;;8.80;99.90;;;;;;5047587;28;20491;-39
2022/12/27 11:02:18;;;;;;;4.37;2.20;;;8.80;99.90;;;;;;5046372;28;20468;-38
2022/12/27 11:04:58;;;;;;;6.33;2.53;;;8.90;99.90;;;;;;5046795;28;20587;-37
2022/12/27 11:07:32;;;;;;;9.30;2.43;;;8.80;99.90;;;;;;5047815;28;20415;-34
2022/12/27 11:10:15;;;;;;;4.53;2.27;;;8.90;99.90;;;;;;5047661;28;20412;-37
2022/12/27 11:12:58;;;;;;;5.63;2.80;;;8.80;99.90;;;;;;5046432;28;20812;-38
2022/12/27 11:15:26;;;;;;;5.67;2.87;;;8.70;99.90;;;;;;5050997;28;20831;-34
2022/12/27 11:18:03;;;;;;;6.73;2.83;;;8.70;99.90;;;;;;5049897;28;20420;-39
2022/12/27 11:20:37;;;;;;;5.30;2.40;;;8.70;99.90;;;;;;5051872;28;20462;-38
2022/12/27 11:23:07;;;;;;;6.10;2.23;;;8.60;99.90;;;;;;5048980;28;20472;-41
2022/12/27 11:25:34;;;;;;;4.90;1.97;;;8.50;99.90;;;;;;5050004;28;20470;-40
2022/12/27 11:28:17;;;;;;;9.77;2.70;;;8.30;99.90;;;;;;5050811;28;20412;-38
2022/12/27 11:30:56;;;;;;;4.17;2.10;;;8.30;99.90;;;;;;5051438;28;20420;-39
2022/12/27 11:33:40;;;;;;;5.50;2.47;;;8.40;99.90;;;;;;5050165;28;20423;-39
2022/12/27 11:36:08;;;;;;;3.60;1.97;;;8.40;99.90;;;;;;5051662;28;20790;-37
2022/12/27 11:38:36;;;;;;;4.83;2.20;;;8.50;99.90;;;;;;5050852;28;20609;-36
2022/12/27 11:41:10;;;;;;;7.27;2.30;;;8.80;99.90;;;;;;5050890;28;20470;-37
2022/12/27 11:44:00;;;;;;;3.83;2.40;;;8.80;99.90;;;;;;5050320;28;20452;-36
2022/12/27 11:46:41;;;;;;;4.10;2.00;;;9.00;99.90;;;;;;5049746;28;20439;-40
2022/12/27 11:49:21;;;;;;;5.33;2.30;;;9.40;99.90;;;;;;5050772;28;20779;-35
2022/12/27 11:52:09;;;;;;;5.13;2.30;;;10.00;99.90;;;;;;5050797;28;20477;-35
2022/12/27 11:55:02;;;;;;;13.03;2.83;;;11.40;99.90;;;;;;5050261;28;20411;-37
2022/12/27 11:57:47;;;;;;;3.80;2.07;;;12.20;99.90;;;;;;5050622;28;20408;-37
2022/12/27 12:00:22;;;;;;;4.93;2.63;;;11.90;99.90;;;;;;5050789;28;20423;-35
2022/12/27 12:03:25;;;;;;;3.67;2.20;;;12.60;99.90;;;;;;5050261;28;20462;-40
2022/12/27 12:06:02;;;;;;;4.70;2.20;;;13.40;99.90;;;;;;5050460;28;20408;-36
2022/12/27 12:08:36;;;;;;;5.80;1.80;;;13.00;99.90;;;;;;5048940;28;20412;-40
2022/12/27 12:11:17;;;;;;;6.10;2.40;;;12.50;99.90;;;;;;5050610;28;20443;-38
2022/12/27 12:13:58;;;;;;;3.30;2.23;;;13.80;99.90;;;;;;5044220;28;20469;-38
2022/12/27 12:16:26;;;;;;;4.10;2.10;;;13.30;99.90;;;;;;5050126;28;20465;-40
2022/12/27 12:19:06;;;;;;;6.33;2.70;;;13.30;99.90;;;;;;5050129;28;20412;-38
2022/12/27 12:21:47;;;;;;;3.33;1.90;;;12.70;99.90;;;;;;5050593;28;20869;-37
2022/12/27 12:24:20;;;;;;;6.80;2.23;;;12.10;99.90;;;;;;5049443;28;20547;-37
2022/12/27 12:27:42;;;;;;;8.10;2.60;;;11.60;99.90;;;;;;5048215;28;20477;-38
2022/12/27 12:30:38;;;;;;;3.80;2.20;;;11.10;99.90;;;;;;5027037;28;20503;-35
2022/12/27 12:33:18;;;;;;;4.90;2.10;;;10.70;99.90;;;;;;5026371;28;20539;-40
2022/12/27 12:36:11;;;;;;;3.43;2.03;;;10.40;99.90;;;;;;5047510;28;20464;-38
2022/12/27 12:38:36;;;;;;;4.07;2.20;;;10.10;99.90;;;;;;5050188;28;20788;-38
2022/12/27 12:41:26;;;;;;;6.33;3.37;;;9.90;99.90;;;;;;5049795;28;20661;-40
2022/12/27 12:44:02;;;;;;;5.43;3.23;;;9.60;99.90;;;;;;5049228;28;20500;-38
2022/12/27 12:46:36;;;;;;;4.67;2.30;;;9.40;99.90;;;;;;5049473;28;20849;-38
2022/12/27 12:49:19;;;;;;;3.67;2.30;;;9.30;99.90;;;;;;5049888;28;20413;-36
2022/12/27 12:52:18;;;;;;;7.30;3.50;;;9.10;99.90;;;;;;5049190;28;21050;-41
2022/12/27 12:54:58;;;;;;;6.83;3.50;;;9.10;99.90;;;;;;5049623;28;20459;-38
2022/12/27 12:57:29;;;;;;;4.47;2.50;;;9.00;99.90;;;;;;5049409;28;20412;-35
2022/12/27 13:00:01;;;;;;;6.63;2.70;;;8.90;99.90;;;;;;5047957;28;20427;-38
2022/12/27 13:03:08;;;;;;;4.67;2.40;;;8.80;99.90;;;;;;5049788;28;20543;-39
2022/12/27 13:05:43;;;;;;;9.70;2.60;;;9.00;99.90;;;;;;5046033;28;20511;-40
2022/12/27 13:08:21;;;;;;;11.27;2.40;;;8.80;99.90;;;;;;5049868;28;20507;-40
2022/12/27 13:11:05;;;;;;;7.27;2.10;;;8.60;99.90;;;;;;5049497;28;20400;-38
2022/12/27 13:14:14;;;;;;;5.07;2.23;;;8.50;99.90;;;;;;5048941;28;20436;-36
2022/12/27 13:16:54;;;;;;;5.83;2.57;;;8.60;99.90;;;;;;5048833;28;20459;-38
2022/12/27 13:19:56;;;;;;;6.60;2.50;;;8.50;99.90;;;;;;5049369;28;20440;-35
2022/12/27 13:22:46;;;;;;;8.87;2.37;;;8.50;99.90;;;;;;5048681;28;20605;-37
2022/12/27 13:25:17;;;;;;;8.73;2.90;;;8.60;99.90;;;;;;5047442;28;20869;-37
2022/12/27 13:28:01;;;;;;;5.33;1.97;;;8.50;99.90;;;;;;5049043;28;20903;-38
2022/12/27 13:30:37;;;;;;;5.17;2.30;;;8.40;99.90;;;;;;5049182;28;20462;-41
2022/12/27 13:33:13;;;;;;;6.10;2.50;;;8.30;99.90;;;;;;5048135;28;20444;-37
2022/12/27 13:36:08;;;;;;;6.07;2.57;;;8.50;99.90;;;;;;5048998;28;20565;-36
2022/12/27 13:39:09;;;;;;;3.43;2.40;;;8.40;99.90;;;;;;5047748;28;20416;-37
2022/12/27 13:41:48;;;;;;;4.83;2.30;;;8.50;99.90;;;;;;5048431;28;20430;-38
2022/12/27 13:44:33;;;;;;;6.33;2.50;;;8.40;99.90;;;;;;5047852;28;20558;-40
2022/12/27 13:47:11;;;;;;;2.53;2.13;;;8.40;99.90;;;;;;5039379;28;20407;-34
2022/12/27 13:50:14;;;;;;;4.87;2.33;;;8.30;99.90;;;;;;5037875;28;20460;-39
2022/12/27 13:52:54;;;;;;;3.80;2.60;;;8.20;99.90;;;;;;5033782;28;20482;-35
2022/12/27 13:55:40;;;;;;;4.10;2.67;;;8.20;99.90;;;;;;5028366;28;20452;-38
2022/12/27 13:58:12;;;;;;;6.30;2.73;;;8.30;99.90;;;;;;5029103;28;20448;-38
2022/12/27 14:00:54;;;;;;;2.60;2.40;;;8.40;99.90;;;;;;5028355;28;20426;-36
2022/12/27 14:04:03;;;;;;;5.33;2.87;;;8.20;99.90;;;;;;5027945;28;20465;-36
2022/12/27 14:07:00;;;;;;;3.37;2.10;;;8.40;99.90;;;;;;5028312;28;20422;-35
2022/12/27 14:09:32;;;;;;;6.80;3.07;;;8.00;99.90;;;;;;5028734;28;20804;-37
2022/12/27 14:12:32;;;;;;;5.53;2.00;;;8.30;99.90;;;;;;5034555;28;20412;-37
2022/12/27 14:15:01;;;;;;;4.30;2.20;;;8.30;99.90;;;;;;5047662;28;20418;-41
2022/12/27 14:18:02;;;;;;;2.53;1.90;;;8.10;99.90;;;;;;5047922;28;20486;-37
2022/12/27 14:20:53;;;;;;;5.30;2.40;;;8.10;99.90;;;;;;5047037;28;20421;-37
2022/12/27 14:23:25;;;;;;;4.77;2.00;;;8.10;99.90;;;;;;5038423;28;20467;-36
2022/12/27 14:26:33;;;;;;;7.23;2.30;;;8.20;99.90;;;;;;5045992;28;20481;-36
2022/12/27 14:29:38;;;;;;;5.07;1.93;;;8.20;99.90;;;;;;5047232;28;20424;-35
2022/12/27 14:32:03;;;;;;;4.20;1.77;;;8.20;99.90;;;;;;5046808;28;20420;-38
2022/12/27 14:35:08;;;;;;;6.33;1.93;;;8.20;99.90;;;;;;5045027;28;20420;-38
2022/12/27 14:37:39;;;;;;;6.73;2.03;;;8.20;99.90;;;;;;5044891;28;20268;-34
2022/12/27 14:40:17;;;;;;;4.20;2.17;;;8.10;99.90;;;;;;5046225;28;20427;-35
2022/12/27 14:43:19;;;;;;;3.87;1.97;;;8.10;99.90;;;;;;5045226;28;20625;-39
2022/12/27 14:45:59;;;;;;;3.63;2.77;;;8.30;99.90;;;;;;5045638;28;20450;-37
2022/12/27 14:49:10;;;;;;;5.67;2.30;;;8.20;99.90;;;;;;5046675;28;20412;-40
2022/12/27 14:52:10;;;;;;;2.30;1.50;;;8.00;99.90;;;;;;5031972;28;20478;-37
2022/12/27 14:54:53;;;;;;;3.70;2.20;;;8.00;99.90;;;;;;5048494;28;20794;-39
2022/12/27 14:57:56;;;;;;;6.60;2.40;;;8.00;99.90;;;;;;5050530;28;20422;-37
2022/12/27 15:00:28;;;;;;;7.23;1.90;;;8.00;99.90;;;;;;5049773;28;20830;-37
2022/12/27 15:03:16;;;;;;;6.40;2.23;;;8.00;99.90;;;;;;5047258;28;20486;-36
2022/12/27 15:06:00;;;;;;;6.63;2.30;;;8.20;99.90;;;;;;5046893;28;20454;-37